createdAt,value
2023-01-03T02:02:38.883Z,100929.56
2023-01-03T02:05:08.595Z,100928.63
2023-01-03T02:07:35.678Z,100934.41
2023-01-03T02:10:02.468Z,100925.47
2023-01-03T02:13:03.098Z,100929.91
2023-01-03T02:15:48.828Z,100925.25
2023-01-03T02:18:35.031Z,100934.78
2023-01-03T02:21:38.379Z,100938.34
2023-01-03T02:24:35.757Z,100937.00
2023-01-03T02:27:27.012Z,100934.69
2023-01-03T02:30:24.889Z,100933.88
2023-01-03T02:32:53.822Z,100934.69
2023-01-03T02:35:30.668Z,100946.66
2023-01-03T02:38:17.635Z,100946.34
2023-01-03T02:41:06.274Z,100947.16
2023-01-03T02:43:48.686Z,100948.38
2023-01-03T02:46:44.174Z,100942.25
2023-01-03T02:49:20.362Z,100941.06
2023-01-03T02:51:52.201Z,100942.88
2023-01-03T02:54:33.370Z,100942.44
2023-01-03T02:57:07.134Z,100934.91
2023-01-03T02:59:40.651Z,100931.53
2023-01-03T03:02:08.728Z,100938.25
2023-01-03T03:04:38.104Z,100945.38
2023-01-03T03:07:10.187Z,100938.97
2023-01-03T03:09:56.777Z,100932.88
2023-01-03T03:12:43.762Z,100936.88
2023-01-03T03:15:14.389Z,100941.38
2023-01-03T03:17:42.716Z,100935.13
2023-01-03T03:20:35.010Z,100933.41
2023-01-03T03:23:28.240Z,100940.94
2023-01-03T03:26:07.301Z,100931.41
2023-01-03T03:28:37.884Z,100935.69
2023-01-03T03:31:10.218Z,100933.59
2023-01-03T03:33:44.261Z,100935.06
2023-01-03T03:36:26.382Z,100930.38
2023-01-03T03:38:52.997Z,100927.31
2023-01-03T03:42:00.088Z,100922.44
2023-01-03T03:44:51.763Z,100924.22
2023-01-03T03:48:01.024Z,100920.13
2023-01-03T03:50:54.145Z,100915.53
2023-01-03T03:53:25.279Z,100907.56
2023-01-03T03:56:01.418Z,100912.72
2023-01-03T03:58:32.332Z,100918.47
2023-01-03T04:01:00.937Z,100923.41
2023-01-03T04:03:30.375Z,100920.25
2023-01-03T04:06:02.197Z,100931.31
2023-01-03T04:08:28.740Z,100928.75
2023-01-03T04:11:06.017Z,100921.06
2023-01-03T04:13:33.943Z,100926.38
2023-01-03T04:16:00.905Z,100929.81
2023-01-03T04:18:27.603Z,100928.34
2023-01-03T04:20:54.301Z,100930.03
2023-01-03T04:23:21.194Z,100924.00
2023-01-03T04:25:49.306Z,100919.41
2023-01-03T04:28:16.462Z,100921.41
2023-01-03T04:30:43.288Z,100915.19
2023-01-03T04:33:10.329Z,100917.59
2023-01-03T04:35:37.287Z,100922.56
2023-01-03T04:38:04.513Z,100919.72
2023-01-03T04:40:31.319Z,100923.53
2023-01-03T04:43:16.228Z,100923.84
2023-01-03T04:45:42.931Z,100924.88
2023-01-03T04:48:09.532Z,100913.19
2023-01-03T04:50:36.089Z,100920.41
2023-01-03T04:53:02.897Z,100925.28
2023-01-03T04:55:29.407Z,100926.19
2023-01-03T04:57:55.967Z,100930.47
2023-01-03T05:00:22.654Z,100930.63
2023-01-03T05:02:49.300Z,100929.47
2023-01-03T05:05:15.926Z,100927.38
2023-01-03T05:07:43.377Z,100931.34
2023-01-03T05:10:09.961Z,100945.16
2023-01-03T05:12:36.458Z,100940.53
2023-01-03T05:15:03.183Z,100940.69
2023-01-03T05:17:29.735Z,100940.38
2023-01-03T05:20:15.100Z,100936.72
2023-01-03T05:23:00.272Z,100935.53
2023-01-03T05:25:45.339Z,100933.25
2023-01-03T05:28:17.039Z,100930.56
2023-01-03T05:30:44.200Z,100934.00
2023-01-03T05:33:10.778Z,100943.88
2023-01-03T05:35:38.300Z,100946.66
2023-01-03T05:38:04.910Z,100960.78
2023-01-03T05:40:34.988Z,100964.09
2023-01-03T05:43:05.925Z,100965.06
2023-01-03T05:45:35.187Z,100963.22
2023-01-03T05:48:01.697Z,100971.97
2023-01-03T05:50:28.249Z,100972.09
2023-01-03T05:52:55.104Z,100971.63
2023-01-03T05:55:22.562Z,100970.25
2023-01-03T05:57:49.341Z,100973.81
2023-01-03T06:00:16.579Z,100975.97
2023-01-03T06:02:43.176Z,100979.72
2023-01-03T06:05:10.400Z,100988.13
2023-01-03T06:07:37.627Z,100991.06
2023-01-03T06:10:05.799Z,100984.78
2023-01-03T06:12:32.558Z,100981.13
2023-01-03T06:14:59.160Z,100981.31
2023-01-03T06:17:44.211Z,100986.13
2023-01-03T06:20:11.049Z,100988.66
2023-01-03T06:22:37.641Z,100990.69
2023-01-03T06:25:04.477Z,100994.53
2023-01-03T06:27:31.151Z,100991.59
2023-01-03T06:29:57.791Z,100995.59
2023-01-03T06:32:24.318Z,100995.50
2023-01-03T06:34:51.187Z,100991.16
2023-01-03T06:37:17.870Z,100999.84
2023-01-03T06:39:45.680Z,100991.88
2023-01-03T06:42:31.462Z,100996.16
2023-01-03T06:45:16.547Z,101008.59
2023-01-03T06:48:01.889Z,101003.84
2023-01-03T06:50:46.839Z,101012.19
2023-01-03T06:53:18.280Z,101007.63
2023-01-03T06:55:52.735Z,101023.00
2023-01-03T06:58:22.955Z,101019.16
2023-01-03T07:00:49.493Z,101016.94
2023-01-03T07:03:15.975Z,101026.31
2023-01-03T07:05:42.845Z,101017.47
2023-01-03T07:08:09.441Z,101021.88
2023-01-03T07:10:36.002Z,101023.09
2023-01-03T07:13:22.472Z,101016.84
2023-01-03T07:15:49.056Z,101019.16
2023-01-03T07:18:15.713Z,101022.19
2023-01-03T07:20:44.325Z,101028.25
2023-01-03T07:23:12.009Z,101029.44
2023-01-03T07:25:41.966Z,101036.88
2023-01-03T07:28:12.930Z,101036.13
2023-01-03T07:30:41.007Z,101040.91
2023-01-03T07:33:09.446Z,101044.91
2023-01-03T07:35:37.100Z,101043.09
2023-01-03T07:38:04.858Z,101045.44
2023-01-03T07:40:31.504Z,101039.25
2023-01-03T07:43:16.432Z,101048.97
2023-01-03T07:45:44.358Z,101044.16
2023-01-03T07:48:11.526Z,101043.09
2023-01-03T07:50:38.760Z,101043.94
2023-01-03T07:53:09.046Z,101046.19
2023-01-03T07:55:37.139Z,101045.66
2023-01-03T07:58:03.971Z,101046.53
2023-01-03T08:00:30.712Z,101059.47
2023-01-03T08:02:57.290Z,101061.81
2023-01-03T08:05:25.496Z,101061.13
2023-01-03T08:07:52.942Z,101064.59
2023-01-03T08:10:39.251Z,101069.66
2023-01-03T08:13:18.128Z,101066.13
2023-01-03T08:15:46.299Z,101076.09
2023-01-03T08:18:13.664Z,101075.19
2023-01-03T08:20:40.397Z,101077.06
2023-01-03T08:23:07.257Z,101077.59
2023-01-03T08:25:33.853Z,101080.53
2023-01-03T08:28:01.467Z,101086.22
2023-01-03T08:30:28.985Z,101083.31
2023-01-03T08:32:56.676Z,101086.63
2023-01-03T08:35:25.761Z,101089.88
2023-01-03T08:37:53.493Z,101089.50
2023-01-03T08:40:20.577Z,101100.63
2023-01-03T08:42:47.568Z,101092.63
2023-01-03T08:45:17.008Z,101105.78
2023-01-03T08:47:43.992Z,101110.59
2023-01-03T08:50:11.894Z,101111.81
2023-01-03T08:52:38.645Z,101109.38
2023-01-03T08:55:05.837Z,101112.72
2023-01-03T08:57:32.407Z,101110.00
2023-01-03T08:59:59.080Z,101110.69
2023-01-03T09:02:25.774Z,101114.75
2023-01-03T09:04:52.423Z,101118.59
2023-01-03T09:07:19.070Z,101120.63
2023-01-03T09:09:45.764Z,101123.50
2023-01-03T09:12:12.357Z,101129.25
2023-01-03T09:14:39.170Z,101129.53
2023-01-03T09:17:05.805Z,101129.81
2023-01-03T09:19:32.825Z,101129.13
2023-01-03T09:21:59.515Z,101129.53
2023-01-03T09:24:29.218Z,101122.81
2023-01-03T09:26:55.844Z,101119.28
2023-01-03T09:29:23.089Z,101124.31
2023-01-03T09:31:51.440Z,101130.09
2023-01-03T09:34:18.462Z,101132.59
2023-01-03T09:36:45.045Z,101137.88
2023-01-03T09:39:11.696Z,101149.66
2023-01-03T09:41:39.398Z,101148.69
2023-01-03T09:44:09.344Z,101148.91
2023-01-03T09:46:44.144Z,101150.31
2023-01-03T09:49:14.032Z,101151.41
2023-01-03T09:52:03.477Z,101153.19
2023-01-03T09:54:52.727Z,101151.72
2023-01-03T09:57:44.534Z,101154.47
2023-01-03T10:00:37.103Z,101154.38
2023-01-03T10:03:50.371Z,101163.22
2023-01-03T10:06:21.105Z,101172.03
2023-01-03T10:09:07.335Z,101165.00
2023-01-03T10:11:58.363Z,101165.88
2023-01-03T10:14:51.445Z,101167.22
2023-01-03T10:17:58.504Z,101162.59
2023-01-03T10:20:56.993Z,101164.97
2023-01-03T10:23:23.685Z,101166.66
2023-01-03T10:26:29.185Z,101161.06
2023-01-03T10:29:09.608Z,101166.75
2023-01-03T10:31:47.276Z,101158.94
2023-01-03T10:34:46.620Z,101156.69
2023-01-03T10:37:19.608Z,101160.88
2023-01-03T10:39:46.190Z,101155.75
2023-01-03T10:42:19.665Z,101156.81
2023-01-03T10:45:00.629Z,101136.53
2023-01-03T10:47:27.517Z,101139.25
2023-01-03T10:50:01.976Z,101136.75
2023-01-03T10:52:34.420Z,101143.50
2023-01-03T10:55:04.429Z,101138.78
2023-01-03T10:57:56.760Z,101148.16
2023-01-03T11:00:25.220Z,101143.91
2023-01-03T11:02:52.681Z,101142.41
2023-01-03T11:05:22.878Z,101142.69
2023-01-03T11:07:55.266Z,101148.81
2023-01-03T11:10:23.556Z,101153.84
2023-01-03T11:12:50.344Z,101146.19
2023-01-03T11:15:25.304Z,101141.63
2023-01-03T11:18:02.083Z,101140.25
2023-01-03T11:21:01.841Z,101126.06
2023-01-03T11:24:02.506Z,101127.03
2023-01-03T11:26:55.988Z,101128.78
2023-01-03T11:29:47.467Z,101131.16
2023-01-03T11:32:27.808Z,101127.03
2023-01-03T11:35:23.347Z,101124.84
2023-01-03T11:37:51.300Z,101120.44
2023-01-03T11:40:54.367Z,101121.75
2023-01-03T11:43:42.228Z,101126.31
2023-01-03T11:46:24.999Z,101129.25
2023-01-03T11:49:05.141Z,101128.88
2023-01-03T11:51:53.837Z,101129.38
2023-01-03T11:54:26.553Z,101118.09
2023-01-03T11:56:53.719Z,101128.34
2023-01-03T11:59:38.688Z,101123.00
2023-01-03T12:02:42.634Z,101109.25
2023-01-03T12:05:34.024Z,101102.81
2023-01-03T12:08:04.602Z,101097.09
2023-01-03T12:10:50.983Z,101094.53
2023-01-03T12:13:32.860Z,101092.13
2023-01-03T12:16:08.955Z,101093.59
2023-01-03T12:18:41.724Z,101094.75
2023-01-03T12:21:32.666Z,101087.22
2023-01-03T12:24:07.190Z,101081.25
2023-01-03T12:26:39.142Z,101079.44
2023-01-03T12:29:18.115Z,101084.69
2023-01-03T12:31:53.879Z,101086.31
2023-01-03T12:34:36.761Z,101088.38
2023-01-03T12:37:14.254Z,101075.78
2023-01-03T12:39:55.301Z,101085.06
2023-01-03T12:42:35.690Z,101079.94
2023-01-03T12:45:13.706Z,101083.06
2023-01-03T12:47:42.741Z,101071.81
2023-01-03T12:50:21.506Z,101086.41
2023-01-03T12:52:57.236Z,101074.91
2023-01-03T12:55:30.053Z,101071.06
2023-01-03T12:58:39.370Z,101072.28
2023-01-03T13:01:18.121Z,101070.38
2023-01-03T13:03:59.965Z,101069.22
2023-01-03T13:06:34.615Z,101062.72
2023-01-03T13:09:37.046Z,101056.88
2023-01-03T13:12:16.035Z,101055.13
2023-01-03T13:14:58.695Z,101063.66
2023-01-03T13:17:27.662Z,101057.91
2023-01-03T13:20:16.765Z,101066.03
2023-01-03T13:23:21.584Z,101060.72
2023-01-03T13:26:27.849Z,101058.88
2023-01-03T13:29:33.114Z,101059.25
2023-01-03T13:32:24.305Z,101063.75
2023-01-03T13:34:53.874Z,101063.19
2023-01-03T13:37:42.157Z,101064.31
2023-01-03T13:43:20.750Z,101065.44
2023-01-03T13:45:49.127Z,101058.13
2023-01-03T13:48:29.681Z,101058.13
2023-01-03T13:51:15.946Z,101052.09
2023-01-03T13:54:22.458Z,101050.00
2023-01-03T13:56:48.992Z,101057.03
2023-01-03T13:59:15.546Z,101048.09
2023-01-03T14:02:03.460Z,101052.91
2023-01-03T14:04:30.000Z,101045.38
2023-01-03T14:07:15.894Z,101041.22
2023-01-03T14:09:54.720Z,101049.16
2023-01-03T14:12:42.714Z,101055.69
2023-01-03T14:15:26.461Z,101054.91
2023-01-03T14:18:02.008Z,101056.78
2023-01-03T14:20:32.627Z,101057.34
2023-01-03T14:23:31.919Z,101058.09
2023-01-03T14:25:53.988Z,101064.03
2023-01-03T14:28:24.144Z,101058.81
2023-01-03T14:31:02.271Z,101061.63
2023-01-03T14:33:38.557Z,101064.09
2023-01-03T14:36:16.420Z,101070.56
2023-01-03T14:39:00.005Z,101067.28
2023-01-03T14:41:38.286Z,101078.53
2023-01-03T14:44:16.104Z,101074.66
2023-01-03T14:46:53.552Z,101077.88
2023-01-03T14:49:25.732Z,101079.41
2023-01-03T14:52:01.084Z,101080.50
2023-01-03T14:54:29.243Z,101078.47
2023-01-03T14:56:56.047Z,101083.09
2023-01-03T14:59:23.525Z,101083.66
2023-01-03T15:01:51.194Z,101082.19
2023-01-03T15:04:17.947Z,101087.19
2023-01-03T15:07:13.027Z,101080.56
2023-01-03T15:09:40.357Z,101083.16
2023-01-03T15:12:07.275Z,101083.53
2023-01-03T15:14:36.269Z,101079.03
2023-01-03T15:17:14.871Z,101086.25
2023-01-03T15:19:50.002Z,101087.53
2023-01-03T15:22:22.491Z,101088.03
2023-01-03T15:24:53.845Z,101088.25
2023-01-03T15:27:38.899Z,101091.97
2023-01-03T15:30:14.571Z,101094.94
2023-01-03T15:33:02.528Z,101092.41
2023-01-03T15:35:40.678Z,101088.75
2023-01-03T15:38:26.592Z,101093.09
2023-01-03T15:40:53.184Z,101103.31
2023-01-03T15:43:25.871Z,101096.56
2023-01-03T15:46:00.528Z,101099.25
2023-01-03T15:48:28.144Z,101105.00
2023-01-03T15:50:59.630Z,101103.31
2023-01-03T15:53:39.499Z,101111.53
2023-01-03T15:56:22.955Z,101100.47
2023-01-03T15:58:52.024Z,101094.47
2023-01-03T16:01:20.035Z,101099.75
2023-01-03T16:03:48.415Z,101095.41
2023-01-03T16:06:16.533Z,101088.75
2023-01-03T16:08:43.747Z,101091.53
2023-01-03T16:11:18.408Z,101092.38
2023-01-03T16:13:53.921Z,101094.31
2023-01-03T16:16:32.461Z,101096.91
2023-01-03T16:18:59.496Z,101101.66
2023-01-03T16:21:26.862Z,101106.34
2023-01-03T16:23:53.441Z,101110.84
2023-01-03T16:26:20.359Z,101118.59
2023-01-03T16:28:46.895Z,101119.22
2023-01-03T16:31:18.179Z,101123.41
2023-01-03T16:33:48.193Z,101121.16
2023-01-03T16:36:29.449Z,101124.59
2023-01-03T16:38:56.275Z,101124.47
2023-01-03T16:41:22.831Z,101132.59
2023-01-03T16:43:49.713Z,101135.91
2023-01-03T16:46:21.110Z,101119.03
2023-01-03T16:48:52.841Z,101119.34
2023-01-03T16:51:24.486Z,101124.44
2023-01-03T16:53:52.252Z,101130.00
2023-01-03T16:56:18.965Z,101116.28
2023-01-03T16:58:45.619Z,101122.81
2023-01-03T17:01:13.693Z,101128.06
2023-01-03T17:03:42.275Z,101119.03
2023-01-03T17:06:37.469Z,101135.91
2023-01-03T17:09:10.825Z,101138.13
2023-01-03T17:11:38.409Z,101142.78
2023-01-03T17:14:04.950Z,101135.94
2023-01-03T17:16:32.938Z,101141.94
2023-01-03T17:18:59.671Z,101134.66
2023-01-03T17:21:29.225Z,101123.84
2023-01-03T17:24:02.919Z,101133.22
2023-01-03T17:26:32.280Z,101133.16
2023-01-03T17:29:00.895Z,101141.81
2023-01-03T17:31:28.534Z,101139.69
2023-01-03T17:33:55.304Z,101136.38
2023-01-03T17:36:29.267Z,101141.41
2023-01-03T17:39:00.053Z,101142.41
2023-01-03T17:41:27.281Z,101132.78
2023-01-03T17:43:54.727Z,101141.75
2023-01-03T17:46:42.467Z,101137.63
2023-01-03T17:49:27.064Z,101143.56
2023-01-03T17:51:57.144Z,101146.34
2023-01-03T17:54:30.148Z,101143.38
2023-01-03T17:56:58.903Z,101150.00
2023-01-03T17:59:26.102Z,101141.84
2023-01-03T18:01:54.643Z,101145.84
2023-01-03T18:04:38.281Z,101151.38
2023-01-03T18:07:18.131Z,101139.81
2023-01-03T18:09:44.681Z,101152.53
2023-01-03T18:12:16.862Z,101156.16
2023-01-03T18:14:43.866Z,101149.94
2023-01-03T18:17:29.871Z,101148.16
2023-01-03T18:19:58.000Z,101150.88
2023-01-03T18:22:25.277Z,101160.59
2023-01-03T18:24:53.471Z,101162.59
2023-01-03T18:27:25.343Z,101155.88
2023-01-03T18:29:51.972Z,101155.16
2023-01-03T18:32:28.865Z,101164.97
2023-01-03T18:34:55.889Z,101150.88
2023-01-03T18:37:25.499Z,101158.81
2023-01-03T18:39:52.348Z,101157.22
2023-01-03T18:42:37.772Z,101156.88
2023-01-03T18:45:04.939Z,101153.53
2023-01-03T18:47:32.218Z,101153.97
2023-01-03T18:49:59.216Z,101147.34
2023-01-03T18:52:31.079Z,101153.97
2023-01-03T18:54:57.670Z,101159.69
2023-01-03T18:57:24.257Z,101163.88
2023-01-03T18:59:51.183Z,101159.94
2023-01-03T19:02:22.150Z,101163.66
2023-01-03T19:04:51.663Z,101162.97
2023-01-03T19:07:24.537Z,101170.13
2023-01-03T19:09:51.623Z,101180.13
2023-01-03T19:12:19.221Z,101181.50
2023-01-03T19:14:47.027Z,101184.41
2023-01-03T19:17:19.093Z,101183.50
2023-01-03T19:19:45.718Z,101189.06
2023-01-03T19:22:33.120Z,101182.25
2023-01-03T19:25:04.360Z,101176.84
2023-01-03T19:27:45.222Z,101182.50
2023-01-03T19:30:20.104Z,101192.91
2023-01-03T19:32:52.494Z,101191.00
2023-01-03T19:35:19.414Z,101192.81
2023-01-03T19:37:46.301Z,101193.91
2023-01-03T19:40:18.312Z,101195.78
2023-01-03T19:42:52.664Z,101196.59
2023-01-03T19:45:41.315Z,101200.31
2023-01-03T19:48:34.245Z,101185.66
2023-01-03T19:51:01.145Z,101199.25
2023-01-03T19:53:27.665Z,101193.72
2023-01-03T19:55:54.625Z,101196.78
2023-01-03T19:58:26.732Z,101193.25
2023-01-03T20:00:54.188Z,101196.09
2023-01-03T20:03:33.267Z,101204.13
2023-01-03T20:06:00.551Z,101201.91
2023-01-03T20:08:27.303Z,101204.56
2023-01-03T20:10:54.513Z,101205.47
2023-01-03T20:13:26.521Z,101207.00
2023-01-03T20:15:57.440Z,101207.09
2023-01-03T20:18:34.168Z,101204.91
2023-01-03T20:21:30.408Z,101209.63
2023-01-03T20:24:01.731Z,101213.97
2023-01-03T20:26:30.715Z,101220.09
2023-01-03T20:28:58.720Z,101225.78
2023-01-03T20:31:25.902Z,101218.91
2023-01-03T20:33:52.493Z,101219.66
2023-01-03T20:36:25.628Z,101218.31
2023-01-03T20:38:53.906Z,101227.91
2023-01-03T20:41:20.584Z,101234.19
2023-01-03T20:43:49.073Z,101231.75
2023-01-03T20:46:22.343Z,101227.47
2023-01-03T20:48:57.761Z,101230.63
2023-01-03T20:51:24.802Z,101221.75
2023-01-03T20:53:54.688Z,101227.47
2023-01-03T20:56:22.399Z,101221.59
2023-01-03T20:58:48.947Z,101225.25
2023-01-03T21:01:15.578Z,101224.69
2023-01-03T21:03:42.530Z,101221.16
2023-01-03T21:06:29.419Z,101226.94
2023-01-03T21:08:56.864Z,101235.44
2023-01-03T21:11:31.979Z,101225.59
2023-01-03T21:14:00.383Z,101227.63
2023-01-03T21:16:42.759Z,101222.50
2023-01-03T21:19:15.204Z,101221.63
2023-01-03T21:21:49.918Z,101227.91
2023-01-03T21:24:18.699Z,101220.94
2023-01-03T21:26:54.097Z,101217.78
2023-01-03T21:29:22.165Z,101226.47
2023-01-03T21:31:48.784Z,101234.69
2023-01-03T21:34:20.507Z,101237.19
2023-01-03T21:36:47.967Z,101229.34
2023-01-03T21:39:15.033Z,101238.78
2023-01-03T21:42:00.298Z,101238.06
2023-01-03T21:44:26.881Z,101239.63
2023-01-03T21:46:53.556Z,101241.69
2023-01-03T21:49:20.776Z,101239.63
2023-01-03T21:51:47.362Z,101245.63
2023-01-03T21:54:13.921Z,101246.00
2023-01-03T21:56:46.403Z,101247.22
2023-01-03T21:59:15.401Z,101252.09
2023-01-03T22:02:05.532Z,101248.50
2023-01-03T22:04:33.347Z,101256.22
2023-01-03T22:07:02.593Z,101265.13
2023-01-03T22:09:49.491Z,101264.38
2023-01-03T22:12:16.789Z,101261.06
2023-01-03T22:14:44.711Z,101263.84
2023-01-03T22:17:11.380Z,101267.84
2023-01-03T22:19:37.961Z,101269.78
2023-01-03T22:22:04.990Z,101273.88
2023-01-03T22:24:31.810Z,101274.28
2023-01-03T22:26:58.371Z,101276.81
2023-01-03T22:29:25.015Z,101280.34
2023-01-03T22:31:51.781Z,101272.06
2023-01-03T22:34:18.457Z,101274.88
2023-01-03T22:36:45.069Z,101272.41
2023-01-03T22:39:11.945Z,101275.41
2023-01-03T22:41:38.858Z,101264.81
2023-01-03T22:44:05.373Z,101266.19
2023-01-03T22:46:34.836Z,101271.94
2023-01-03T22:49:01.476Z,101276.69
2023-01-03T22:51:28.032Z,101274.94
2023-01-03T22:53:57.284Z,101279.47
2023-01-03T22:56:23.953Z,101284.13
2023-01-03T22:58:50.468Z,101273.63
2023-01-03T23:01:20.341Z,101275.41
2023-01-03T23:03:47.453Z,101279.47
2023-01-03T23:06:17.310Z,101275.94
2023-01-03T23:08:44.305Z,101274.34
2023-01-03T23:11:34.963Z,101274.59
2023-01-03T23:14:08.371Z,101272.16
2023-01-03T23:16:35.177Z,101273.19
2023-01-03T23:19:03.478Z,101264.88
2023-01-03T23:21:30.292Z,101261.88
2023-01-03T23:23:57.077Z,101260.88
2023-01-03T23:26:24.334Z,101261.88
2023-01-03T23:28:55.399Z,101257.38
2023-01-03T23:31:22.901Z,101261.56
2023-01-03T23:33:49.457Z,101265.13
2023-01-03T23:36:17.577Z,101254.69
2023-01-03T23:38:44.225Z,101253.13
2023-01-03T23:41:10.934Z,101259.31
2023-01-03T23:43:38.229Z,101268.59
2023-01-03T23:46:05.628Z,101261.81
2023-01-03T23:48:33.183Z,101258.19
2023-01-03T23:51:04.595Z,101259.84
2023-01-03T23:53:31.439Z,101259.47
2023-01-03T23:55:58.716Z,101259.81
2023-01-03T23:58:25.547Z,101255.53
